Aeroporto :
LOGIN :

Iscrizione | Disclaimer

   EN    FR    IT 

 










Sommario :    VFR   VFR Marginale   IFR   IFR Intensivo   IFR Molto Intensivo
Visibilità : 
Base nubi : 
>= 8 km
>= 3000ft
5 / 8 km
1000 / 3000 ft
1500m / 5 km
500 / 1000 ft
800 / 1500m
200 / 500 ft
< 800m
< 200 ft
Simboli :   Temporali  Nebbia  Neve Forte  Precipitazioni Forti  Vento > 20 kt
SIGMETs :   Varie  Temporali  Ghiacco  Turbolenza  Onda orograficha  Ceneri Vulcaniche







- Altitudine del aeroporto : 1768 ft


LEHC - Huesca Pirineos

ULTIMO METAR :
  • 190700Z AUTO 32002KT 9999 NCD M02/M02 Q1020

METARs OBSOLETI :
  • 190630Z AUTO 36003KT 9999 NCD 00/M01 Q1020
  • 190600Z AUTO 35003KT CAVOK M00/M01 Q1020
  • 190530Z AUTO 01003KT 9999 NCD 01/M01 Q1020
  • 190500Z AUTO VRB02KT 9999 NCD 00/M01 Q1020
  • 190430Z AUTO 35003KT 9999 NCD 01/M00 Q1020

TAF TAF LEHC
Valido dal 19 a 03 ore il 20 a 03 ore UTC


190200Z 1903/2003 09007KT 9999 FEW030 TX15/1914Z TN02/1907Z
TEMPO 1906/1911 VRB03KT
TEMPO 1912/1919 13010KT
Nessun NOTAM noto per questo aeroporto.
2 SIGMETs conosciuti per la FIR Madrid (LECM) :
 
Turbolenza severa
LECM SIGMET 2 VALID 190800/191200 LEVA
LECM MADRID FIR/UIR SEV TURB FCST WI N4414 W00342 - N3710 W00740 - N3556 W00727 - N3553 W00620 - N4258 W00119 - N4414 W00342 FL180/300 MOV E 5KT NC=
Turbolenza severa
LECM SIGMET 1 VALID 190400/190800 LEVA
LECM MADRID FIR/UIR SEV TURB FCST WI N4410 W00339 - N4002 W00653 - N3708 W00723 - N3626 W00625 - N4326 W00143 - N4410 W00339 FL180/300 MOV E 20KT NC=



MetMap, La meteo Aeronautica in un colpo d'occhio ! - Copyright ORBIFLY Dicembre 2007 - Disclaimer

ORBIFLY MET'MAP TEAM :

Programmazione e sviluppo : Alexandra Zaïnal
Concezione e sviluppo : Baudouin d'Aumeries
Co-Programmazione e sviluppo : Marc-Olivier Méhu
Supporto tecnico e logistico : Manuel Goepfert
Aiuto per la traduzione : Arnaldo La Scala

Contatto : metmap@orbifly.com




FONTI E CREDITI :

   NOAA